Somersett, Nevada
Current Conditions -  °F | °C
As of 4:55 AM on Friday 28 Nov 2014 (Local Time) from KRNO Reporting Station
Clear Clear  
Wind Chill: 35°   Ceiling: Unl
Heat Index: 40°   Visibility: 10mi
Dew Point:   Wind: 7mph
Humidity: 28%   Direction: 10°N
Pressure: 30"   Gusts: NA
Location:  39.5383°N, 119.938°W
Report Text: KRNO 281255Z 01006KT 10SM CLR 04/M13 A3000 RMK AO2 SLP134 T00441128
Loading
Personal Weather Stations






























Interactive Weather Map New forecast layout! Learn more

10-Day Weather Forecast

Advertisements
Track Severe Weather on mobile